sensor_id;sensor_type;location;lat;lon;timestamp;temperature;humidity
20650;DHT22;10484;48.736;9.332;2023-08-08T00:01:57;14.80;1.00
20650;DHT22;10484;48.736;9.332;2023-08-08T00:04:23;14.80;1.00
20650;DHT22;10484;48.736;9.332;2023-08-08T00:06:48;14.70;1.00
20650;DHT22;10484;48.736;9.332;2023-08-08T00:09:14;14.70;1.00
20650;DHT22;10484;48.736;9.332;2023-08-08T00:11:39;14.70;1.00
20650;DHT22;10484;48.736;9.332;2023-08-08T00:14:05;14.60;1.00
20650;DHT22;10484;48.736;9.332;2023-08-08T00:16:31;14.60;1.00
20650;DHT22;10484;48.736;9.332;2023-08-08T00:18:57;14.60;1.00
20650;DHT22;10484;48.736;9.332;2023-08-08T00:21:22;14.60;1.00
20650;DHT22;10484;48.736;9.332;2023-08-08T00:23:48;14.60;1.00
20650;DHT22;10484;48.736;9.332;2023-08-08T00:26:13;14.60;1.00
20650;DHT22;10484;48.736;9.332;2023-08-08T00:28:39;14.50;1.00
20650;DHT22;10484;48.736;9.332;2023-08-08T00:31:05;14.50;1.00
20650;DHT22;10484;48.736;9.332;2023-08-08T00:33:30;14.50;1.00
20650;DHT22;10484;48.736;9.332;2023-08-08T00:35:56;14.40;1.00
20650;DHT22;10484;48.736;9.332;2023-08-08T00:38:22;14.40;1.00
20650;DHT22;10484;48.736;9.332;2023-08-08T00:40:47;14.40;1.00
20650;DHT22;10484;48.736;9.332;2023-08-08T00:43:13;14.40;1.00
20650;DHT22;10484;48.736;9.332;2023-08-08T00:45:41;14.40;1.00
20650;DHT22;10484;48.736;9.332;2023-08-08T00:48:07;14.40;1.00
20650;DHT22;10484;48.736;9.332;2023-08-08T00:50:34;14.40;1.00
20650;DHT22;10484;48.736;9.332;2023-08-08T00:53:00;14.40;1.00
20650;DHT22;10484;48.736;9.332;2023-08-08T00:55:26;14.30;1.00
20650;DHT22;10484;48.736;9.332;2023-08-08T00:57:52;14.30;1.00
20650;DHT22;10484;48.736;9.332;2023-08-08T01:00:18;14.30;1.00
20650;DHT22;10484;48.736;9.332;2023-08-08T01:02:43;14.30;1.00
20650;DHT22;10484;48.736;9.332;2023-08-08T01:05:09;14.30;1.00
20650;DHT22;10484;48.736;9.332;2023-08-08T01:07:55;14.30;1.00
20650;DHT22;10484;48.736;9.332;2023-08-08T01:10:33;14.30;1.00
20650;DHT22;10484;48.736;9.332;2023-08-08T01:13:08;14.30;1.00
20650;DHT22;10484;48.736;9.332;2023-08-08T01:15:36;14.30;1.00
20650;DHT22;10484;48.736;9.332;2023-08-08T01:18:07;14.30;1.00
20650;DHT22;10484;48.736;9.332;2023-08-08T01:20:34;14.30;1.00
20650;DHT22;10484;48.736;9.332;2023-08-08T01:25:44;14.30;1.00
20650;DHT22;10484;48.736;9.332;2023-08-08T01:28:11;14.30;1.00
20650;DHT22;10484;48.736;9.332;2023-08-08T01:30:37;14.30;1.00
20650;DHT22;10484;48.736;9.332;2023-08-08T01:33:04;14.30;1.00
20650;DHT22;10484;48.736;9.332;2023-08-08T01:35:32;14.30;1.00
20650;DHT22;10484;48.736;9.332;2023-08-08T01:38:17;14.30;1.00
20650;DHT22;10484;48.736;9.332;2023-08-08T01:40:45;14.20;1.00
20650;DHT22;10484;48.736;9.332;2023-08-08T01:43:12;14.30;1.00
20650;DHT22;10484;48.736;9.332;2023-08-08T01:45:39;14.30;1.00
20650;DHT22;10484;48.736;9.332;2023-08-08T01:48:08;14.20;1.00
20650;DHT22;10484;48.736;9.332;2023-08-08T01:50:34;14.30;1.00
20650;DHT22;10484;48.736;9.332;2023-08-08T01:53:00;14.20;1.00
20650;DHT22;10484;48.736;9.332;2023-08-08T01:55:26;14.20;1.00
20650;DHT22;10484;48.736;9.332;2023-08-08T01:57:52;14.20;1.00
20650;DHT22;10484;48.736;9.332;2023-08-08T02:00:18;14.20;1.00
20650;DHT22;10484;48.736;9.332;2023-08-08T02:02:43;14.20;1.00
20650;DHT22;10484;48.736;9.332;2023-08-08T02:05:09;14.30;1.00
20650;DHT22;10484;48.736;9.332;2023-08-08T02:07:34;14.20;1.00
20650;DHT22;10484;48.736;9.332;2023-08-08T02:10:00;14.30;1.00
20650;DHT22;10484;48.736;9.332;2023-08-08T02:12:25;14.20;1.00
20650;DHT22;10484;48.736;9.332;2023-08-08T02:14:51;14.20;1.00
20650;DHT22;10484;48.736;9.332;2023-08-08T02:17:17;14.20;1.00
20650;DHT22;10484;48.736;9.332;2023-08-08T02:19:42;14.20;1.00
20650;DHT22;10484;48.736;9.332;2023-08-08T02:22:08;14.30;1.00
20650;DHT22;10484;48.736;9.332;2023-08-08T02:24:34;14.20;1.00
20650;DHT22;10484;48.736;9.332;2023-08-08T02:26:59;14.20;1.00
20650;DHT22;10484;48.736;9.332;2023-08-08T02:29:25;14.20;1.00
20650;DHT22;10484;48.736;9.332;2023-08-08T02:31:50;14.20;1.00
20650;DHT22;10484;48.736;9.332;2023-08-08T02:34:16;14.20;1.00
20650;DHT22;10484;48.736;9.332;2023-08-08T02:36:42;14.20;1.00
20650;DHT22;10484;48.736;9.332;2023-08-08T02:39:07;14.20;1.00
20650;DHT22;10484;48.736;9.332;2023-08-08T02:41:33;14.20;1.00
20650;DHT22;10484;48.736;9.332;2023-08-08T02:43:58;14.20;1.00
20650;DHT22;10484;48.736;9.332;2023-08-08T02:46:24;14.20;1.00
20650;DHT22;10484;48.736;9.332;2023-08-08T02:48:49;14.20;1.00
20650;DHT22;10484;48.736;9.332;2023-08-08T02:51:15;14.20;1.00
20650;DHT22;10484;48.736;9.332;2023-08-08T02:53:41;14.10;1.00
20650;DHT22;10484;48.736;9.332;2023-08-08T02:56:06;14.10;1.00
20650;DHT22;10484;48.736;9.332;2023-08-08T02:58:32;14.10;1.00
20650;DHT22;10484;48.736;9.332;2023-08-08T03:00:57;14.10;1.00
20650;DHT22;10484;48.736;9.332;2023-08-08T03:03:23;14.10;1.00
20650;DHT22;10484;48.736;9.332;2023-08-08T03:05:49;14.10;1.00
20650;DHT22;10484;48.736;9.332;2023-08-08T03:08:15;14.10;1.00
20650;DHT22;10484;48.736;9.332;2023-08-08T03:10:40;14.10;1.00
20650;DHT22;10484;48.736;9.332;2023-08-08T03:13:06;14.10;1.00
20650;DHT22;10484;48.736;9.332;2023-08-08T03:15:32;14.10;1.00
20650;DHT22;10484;48.736;9.332;2023-08-08T03:17:58;14.10;1.00
20650;DHT22;10484;48.736;9.332;2023-08-08T03:20:23;14.10;1.00
20650;DHT22;10484;48.736;9.332;2023-08-08T03:22:49;14.10;1.00
20650;DHT22;10484;48.736;9.332;2023-08-08T03:25:14;14.00;1.00
20650;DHT22;10484;48.736;9.332;2023-08-08T03:27:40;14.00;1.00
20650;DHT22;10484;48.736;9.332;2023-08-08T03:30:06;14.00;1.00
20650;DHT22;10484;48.736;9.332;2023-08-08T03:32:32;14.00;1.00
20650;DHT22;10484;48.736;9.332;2023-08-08T03:34:57;14.00;1.00
20650;DHT22;10484;48.736;9.332;2023-08-08T03:37:23;14.00;1.00
20650;DHT22;10484;48.736;9.332;2023-08-08T03:39:48;14.00;1.00
20650;DHT22;10484;48.736;9.332;2023-08-08T03:42:14;14.00;1.00
20650;DHT22;10484;48.736;9.332;2023-08-08T03:44:40;14.00;1.00
20650;DHT22;10484;48.736;9.332;2023-08-08T03:47:06;14.00;1.00
20650;DHT22;10484;48.736;9.332;2023-08-08T03:49:32;13.90;1.00
20650;DHT22;10484;48.736;9.332;2023-08-08T03:51:58;13.90;1.00
20650;DHT22;10484;48.736;9.332;2023-08-08T03:54:24;14.00;1.00
20650;DHT22;10484;48.736;9.332;2023-08-08T03:56:49;13.90;1.00
20650;DHT22;10484;48.736;9.332;2023-08-08T03:59:15;13.90;1.00
20650;DHT22;10484;48.736;9.332;2023-08-08T04:01:40;14.00;1.00
20650;DHT22;10484;48.736;9.332;2023-08-08T04:04:06;13.90;1.00
20650;DHT22;10484;48.736;9.332;2023-08-08T04:06:31;14.00;1.00
20650;DHT22;10484;48.736;9.332;2023-08-08T04:08:57;13.90;1.00
20650;DHT22;10484;48.736;9.332;2023-08-08T04:11:23;13.90;1.20
20650;DHT22;10484;48.736;9.332;2023-08-08T04:13:48;13.90;1.00
20650;DHT22;10484;48.736;9.332;2023-08-08T04:16:14;13.90;1.00
20650;DHT22;10484;48.736;9.332;2023-08-08T04:18:40;14.00;1.00
20650;DHT22;10484;48.736;9.332;2023-08-08T04:21:05;13.90;1.00
20650;DHT22;10484;48.736;9.332;2023-08-08T04:23:31;13.90;1.00
20650;DHT22;10484;48.736;9.332;2023-08-08T04:25:56;13.90;1.30
20650;DHT22;10484;48.736;9.332;2023-08-08T04:28:22;14.00;1.50
20650;DHT22;10484;48.736;9.332;2023-08-08T04:30:48;13.90;5.10
20650;DHT22;10484;48.736;9.332;2023-08-08T04:33:13;13.90;5.70
20650;DHT22;10484;48.736;9.332;2023-08-08T04:35:39;13.90;2.70
20650;DHT22;10484;48.736;9.332;2023-08-08T04:38:04;14.00;3.30
20650;DHT22;10484;48.736;9.332;2023-08-08T04:40:30;13.90;4.00
20650;DHT22;10484;48.736;9.332;2023-08-08T04:42:56;13.90;4.40
20650;DHT22;10484;48.736;9.332;2023-08-08T04:45:21;14.00;4.90
20650;DHT22;10484;48.736;9.332;2023-08-08T04:47:47;13.90;5.20
20650;DHT22;10484;48.736;9.332;2023-08-08T04:50:13;14.00;5.90
20650;DHT22;10484;48.736;9.332;2023-08-08T04:52:38;13.90;6.20
20650;DHT22;10484;48.736;9.332;2023-08-08T04:55:05;14.00;6.60
20650;DHT22;10484;48.736;9.332;2023-08-08T04:57:32;14.00;6.50
20650;DHT22;10484;48.736;9.332;2023-08-08T04:59:57;13.90;6.70
20650;DHT22;10484;48.736;9.332;2023-08-08T05:02:23;14.00;7.20
20650;DHT22;10484;48.736;9.332;2023-08-08T05:04:48;14.00;7.20
20650;DHT22;10484;48.736;9.332;2023-08-08T05:07:15;14.00;7.10
20650;DHT22;10484;48.736;9.332;2023-08-08T05:09:40;14.00;7.20
20650;DHT22;10484;48.736;9.332;2023-08-08T05:12:06;14.00;7.90
20650;DHT22;10484;48.736;9.332;2023-08-08T05:14:32;14.00;7.60
20650;DHT22;10484;48.736;9.332;2023-08-08T05:16:58;14.10;8.10
20650;DHT22;10484;48.736;9.332;2023-08-08T05:19:23;14.10;8.40
20650;DHT22;10484;48.736;9.332;2023-08-08T05:21:50;14.10;8.80
20650;DHT22;10484;48.736;9.332;2023-08-08T05:24:16;14.10;9.60
20650;DHT22;10484;48.736;9.332;2023-08-08T05:26:41;14.00;9.90
20650;DHT22;10484;48.736;9.332;2023-08-08T05:29:07;14.10;10.20
20650;DHT22;10484;48.736;9.332;2023-08-08T05:31:32;14.10;10.50
20650;DHT22;10484;48.736;9.332;2023-08-08T05:33:58;14.10;10.70
20650;DHT22;10484;48.736;9.332;2023-08-08T05:36:23;14.10;10.60
20650;DHT22;10484;48.736;9.332;2023-08-08T05:38:49;14.10;10.10
20650;DHT22;10484;48.736;9.332;2023-08-08T05:41:14;14.10;8.80
20650;DHT22;10484;48.736;9.332;2023-08-08T05:43:40;14.10;6.60
20650;DHT22;10484;48.736;9.332;2023-08-08T05:46:06;14.20;5.40
20650;DHT22;10484;48.736;9.332;2023-08-08T05:48:31;14.20;5.20
20650;DHT22;10484;48.736;9.332;2023-08-08T05:50:57;14.20;5.40
20650;DHT22;10484;48.736;9.332;2023-08-08T05:53:24;14.10;5.10
20650;DHT22;10484;48.736;9.332;2023-08-08T05:55:49;14.20;5.10
20650;DHT22;10484;48.736;9.332;2023-08-08T05:58:15;14.20;5.10
20650;DHT22;10484;48.736;9.332;2023-08-08T06:00:41;14.20;4.20
20650;DHT22;10484;48.736;9.332;2023-08-08T06:03:08;14.20;3.60
20650;DHT22;10484;48.736;9.332;2023-08-08T06:05:33;14.20;2.50
20650;DHT22;10484;48.736;9.332;2023-08-08T06:07:59;14.30;1.70
20650;DHT22;10484;48.736;9.332;2023-08-08T06:10:25;14.20;1.00
20650;DHT22;10484;48.736;9.332;2023-08-08T06:12:50;14.30;1.00
20650;DHT22;10484;48.736;9.332;2023-08-08T06:15:16;14.30;1.00
20650;DHT22;10484;48.736;9.332;2023-08-08T06:17:43;14.30;1.00
20650;DHT22;10484;48.736;9.332;2023-08-08T06:20:08;14.30;1.00
20650;DHT22;10484;48.736;9.332;2023-08-08T06:22:35;14.30;1.00
20650;DHT22;10484;48.736;9.332;2023-08-08T06:25:00;14.30;1.00
20650;DHT22;10484;48.736;9.332;2023-08-08T06:27:26;14.40;1.00
20650;DHT22;10484;48.736;9.332;2023-08-08T06:29:51;14.40;1.00
20650;DHT22;10484;48.736;9.332;2023-08-08T06:32:17;14.40;1.00
20650;DHT22;10484;48.736;9.332;2023-08-08T06:34:43;14.40;1.00
20650;DHT22;10484;48.736;9.332;2023-08-08T06:37:08;14.40;1.00
20650;DHT22;10484;48.736;9.332;2023-08-08T06:39:34;14.50;1.00
20650;DHT22;10484;48.736;9.332;2023-08-08T06:42:00;14.50;1.00
20650;DHT22;10484;48.736;9.332;2023-08-08T06:44:26;14.50;1.00
20650;DHT22;10484;48.736;9.332;2023-08-08T06:46:51;14.50;1.00
20650;DHT22;10484;48.736;9.332;2023-08-08T06:49:17;14.60;1.00
20650;DHT22;10484;48.736;9.332;2023-08-08T06:51:42;14.60;1.00
20650;DHT22;10484;48.736;9.332;2023-08-08T06:54:08;14.60;1.00
20650;DHT22;10484;48.736;9.332;2023-08-08T06:56:33;14.60;1.00
20650;DHT22;10484;48.736;9.332;2023-08-08T06:58:59;14.70;1.00
20650;DHT22;10484;48.736;9.332;2023-08-08T07:01:24;14.70;1.00
20650;DHT22;10484;48.736;9.332;2023-08-08T07:03:50;14.80;1.00
20650;DHT22;10484;48.736;9.332;2023-08-08T07:06:19;14.80;1.00
20650;DHT22;10484;48.736;9.332;2023-08-08T07:08:44;14.80;1.00
20650;DHT22;10484;48.736;9.332;2023-08-08T07:11:10;14.90;1.00
20650;DHT22;10484;48.736;9.332;2023-08-08T07:13:36;14.90;1.00
20650;DHT22;10484;48.736;9.332;2023-08-08T07:16:01;15.00;1.00
20650;DHT22;10484;48.736;9.332;2023-08-08T07:18:27;15.10;1.00
20650;DHT22;10484;48.736;9.332;2023-08-08T07:20:53;15.10;1.00
20650;DHT22;10484;48.736;9.332;2023-08-08T07:23:19;15.20;1.00
20650;DHT22;10484;48.736;9.332;2023-08-08T07:25:45;15.40;1.00
20650;DHT22;10484;48.736;9.332;2023-08-08T07:28:12;15.40;1.00
20650;DHT22;10484;48.736;9.332;2023-08-08T07:30:40;15.40;1.00
20650;DHT22;10484;48.736;9.332;2023-08-08T07:33:06;15.40;1.00
20650;DHT22;10484;48.736;9.332;2023-08-08T07:35:34;15.50;1.00
20650;DHT22;10484;48.736;9.332;2023-08-08T07:37:59;15.50;1.00
20650;DHT22;10484;48.736;9.332;2023-08-08T07:40:25;15.50;1.00
20650;DHT22;10484;48.736;9.332;2023-08-08T07:42:51;15.60;1.00
20650;DHT22;10484;48.736;9.332;2023-08-08T07:45:16;15.60;1.00
20650;DHT22;10484;48.736;9.332;2023-08-08T07:47:43;15.70;1.00
20650;DHT22;10484;48.736;9.332;2023-08-08T07:50:09;15.70;1.00
20650;DHT22;10484;48.736;9.332;2023-08-08T07:52:36;15.90;1.00
20650;DHT22;10484;48.736;9.332;2023-08-08T07:55:02;16.00;1.00
20650;DHT22;10484;48.736;9.332;2023-08-08T07:57:28;16.00;1.00
20650;DHT22;10484;48.736;9.332;2023-08-08T07:59:55;16.20;1.00
20650;DHT22;10484;48.736;9.332;2023-08-08T08:02:21;16.20;1.00
20650;DHT22;10484;48.736;9.332;2023-08-08T08:04:46;16.40;1.00
20650;DHT22;10484;48.736;9.332;2023-08-08T08:07:12;16.50;1.00
20650;DHT22;10484;48.736;9.332;2023-08-08T08:09:38;16.50;1.00
20650;DHT22;10484;48.736;9.332;2023-08-08T08:12:04;16.60;1.00
20650;DHT22;10484;48.736;9.332;2023-08-08T08:14:30;16.60;1.00
20650;DHT22;10484;48.736;9.332;2023-08-08T08:16:55;16.70;1.00
20650;DHT22;10484;48.736;9.332;2023-08-08T08:19:21;16.80;1.00
20650;DHT22;10484;48.736;9.332;2023-08-08T08:21:47;16.80;1.00
20650;DHT22;10484;48.736;9.332;2023-08-08T08:24:12;16.90;1.00
20650;DHT22;10484;48.736;9.332;2023-08-08T08:26:38;16.90;1.00
20650;DHT22;10484;48.736;9.332;2023-08-08T08:29:04;17.00;1.00
20650;DHT22;10484;48.736;9.332;2023-08-08T08:31:29;17.00;1.00
20650;DHT22;10484;48.736;9.332;2023-08-08T08:33:55;17.00;1.00
20650;DHT22;10484;48.736;9.332;2023-08-08T08:36:20;17.00;1.00
20650;DHT22;10484;48.736;9.332;2023-08-08T08:38:47;17.10;1.00
20650;DHT22;10484;48.736;9.332;2023-08-08T08:41:17;17.10;1.00
20650;DHT22;10484;48.736;9.332;2023-08-08T08:43:44;17.20;1.00
20650;DHT22;10484;48.736;9.332;2023-08-08T08:46:11;17.20;1.00
20650;DHT22;10484;48.736;9.332;2023-08-08T08:48:36;17.30;1.00
20650;DHT22;10484;48.736;9.332;2023-08-08T08:51:02;17.40;1.00
20650;DHT22;10484;48.736;9.332;2023-08-08T08:53:29;17.40;1.00
20650;DHT22;10484;48.736;9.332;2023-08-08T08:55:55;17.50;1.00
20650;DHT22;10484;48.736;9.332;2023-08-08T08:58:22;17.60;1.00
20650;DHT22;10484;48.736;9.332;2023-08-08T09:00:49;17.70;1.00
20650;DHT22;10484;48.736;9.332;2023-08-08T09:03:16;17.80;1.00
20650;DHT22;10484;48.736;9.332;2023-08-08T09:05:42;17.80;1.00
20650;DHT22;10484;48.736;9.332;2023-08-08T09:08:09;17.90;1.00
20650;DHT22;10484;48.736;9.332;2023-08-08T09:10:34;17.90;1.00
20650;DHT22;10484;48.736;9.332;2023-08-08T09:13:01;18.00;1.00
20650;DHT22;10484;48.736;9.332;2023-08-08T09:15:33;18.10;1.00
20650;DHT22;10484;48.736;9.332;2023-08-08T09:17:59;18.20;1.00
20650;DHT22;10484;48.736;9.332;2023-08-08T09:20:26;18.30;1.00
20650;DHT22;10484;48.736;9.332;2023-08-08T09:22:55;18.40;1.00
20650;DHT22;10484;48.736;9.332;2023-08-08T09:25:21;18.50;1.00
20650;DHT22;10484;48.736;9.332;2023-08-08T09:27:46;18.60;1.00
20650;DHT22;10484;48.736;9.332;2023-08-08T09:30:13;18.70;1.00
20650;DHT22;10484;48.736;9.332;2023-08-08T09:32:39;18.90;1.00
20650;DHT22;10484;48.736;9.332;2023-08-08T09:35:05;18.90;1.00
20650;DHT22;10484;48.736;9.332;2023-08-08T09:37:34;19.00;1.00
20650;DHT22;10484;48.736;9.332;2023-08-08T09:40:02;19.10;1.00
20650;DHT22;10484;48.736;9.332;2023-08-08T09:42:29;19.10;1.00
20650;DHT22;10484;48.736;9.332;2023-08-08T09:44:58;19.20;1.00
20650;DHT22;10484;48.736;9.332;2023-08-08T09:47:24;19.30;1.00
20650;DHT22;10484;48.736;9.332;2023-08-08T09:49:51;19.40;1.00
20650;DHT22;10484;48.736;9.332;2023-08-08T09:52:17;19.50;1.00
20650;DHT22;10484;48.736;9.332;2023-08-08T09:54:44;19.60;1.00
20650;DHT22;10484;48.736;9.332;2023-08-08T09:57:10;19.60;1.00
20650;DHT22;10484;48.736;9.332;2023-08-08T09:59:36;19.60;1.00
20650;DHT22;10484;48.736;9.332;2023-08-08T10:02:04;19.70;1.00
20650;DHT22;10484;48.736;9.332;2023-08-08T10:04:30;19.70;1.00
20650;DHT22;10484;48.736;9.332;2023-08-08T10:06:56;19.80;1.00
20650;DHT22;10484;48.736;9.332;2023-08-08T10:09:22;19.80;1.00
20650;DHT22;10484;48.736;9.332;2023-08-08T10:11:49;19.80;1.00
20650;DHT22;10484;48.736;9.332;2023-08-08T10:14:15;19.90;1.00
20650;DHT22;10484;48.736;9.332;2023-08-08T10:16:42;20.00;1.00
20650;DHT22;10484;48.736;9.332;2023-08-08T10:19:11;20.00;1.00
20650;DHT22;10484;48.736;9.332;2023-08-08T10:21:43;20.10;1.00
20650;DHT22;10484;48.736;9.332;2023-08-08T10:24:10;20.10;1.00
20650;DHT22;10484;48.736;9.332;2023-08-08T10:26:58;20.20;1.00
20650;DHT22;10484;48.736;9.332;2023-08-08T10:29:26;20.30;1.00
20650;DHT22;10484;48.736;9.332;2023-08-08T10:32:00;20.40;1.00
20650;DHT22;10484;48.736;9.332;2023-08-08T10:34:46;20.40;1.00
20650;DHT22;10484;48.736;9.332;2023-08-08T10:37:17;20.40;1.00
20650;DHT22;10484;48.736;9.332;2023-08-08T10:39:58;20.50;1.00
20650;DHT22;10484;48.736;9.332;2023-08-08T10:42:27;20.60;1.00
20650;DHT22;10484;48.736;9.332;2023-08-08T10:44:55;20.70;1.00
20650;DHT22;10484;48.736;9.332;2023-08-08T10:47:26;20.70;1.00
20650;DHT22;10484;48.736;9.332;2023-08-08T10:50:08;20.70;1.00
20650;DHT22;10484;48.736;9.332;2023-08-08T10:55:25;20.80;1.00
20650;DHT22;10484;48.736;9.332;2023-08-08T10:57:58;20.80;1.00
20650;DHT22;10484;48.736;9.332;2023-08-08T11:00:27;20.90;1.00
20650;DHT22;10484;48.736;9.332;2023-08-08T11:02:54;20.90;1.00
20650;DHT22;10484;48.736;9.332;2023-08-08T11:05:22;20.90;1.00
20650;DHT22;10484;48.736;9.332;2023-08-08T11:07:48;20.90;1.00
20650;DHT22;10484;48.736;9.332;2023-08-08T11:10:14;21.00;1.00
20650;DHT22;10484;48.736;9.332;2023-08-08T11:12:40;21.10;1.00
20650;DHT22;10484;48.736;9.332;2023-08-08T11:15:06;21.20;1.00
20650;DHT22;10484;48.736;9.332;2023-08-08T11:17:32;21.20;1.00
20650;DHT22;10484;48.736;9.332;2023-08-08T11:19:58;21.30;1.00
20650;DHT22;10484;48.736;9.332;2023-08-08T11:22:23;21.40;1.00
20650;DHT22;10484;48.736;9.332;2023-08-08T11:24:49;21.40;1.00
20650;DHT22;10484;48.736;9.332;2023-08-08T11:27:16;21.50;1.00
20650;DHT22;10484;48.736;9.332;2023-08-08T11:29:49;21.50;1.00
20650;DHT22;10484;48.736;9.332;2023-08-08T11:32:16;21.60;1.00
20650;DHT22;10484;48.736;9.332;2023-08-08T11:34:41;21.80;1.00
20650;DHT22;10484;48.736;9.332;2023-08-08T11:37:08;21.80;1.00
20650;DHT22;10484;48.736;9.332;2023-08-08T11:39:34;21.80;1.00
20650;DHT22;10484;48.736;9.332;2023-08-08T11:42:00;21.90;1.00
20650;DHT22;10484;48.736;9.332;2023-08-08T11:44:26;22.00;1.00
20650;DHT22;10484;48.736;9.332;2023-08-08T11:46:52;22.10;1.00
20650;DHT22;10484;48.736;9.332;2023-08-08T11:49:18;22.10;1.00
20650;DHT22;10484;48.736;9.332;2023-08-08T11:51:44;22.20;1.00
20650;DHT22;10484;48.736;9.332;2023-08-08T11:54:11;22.30;1.00
20650;DHT22;10484;48.736;9.332;2023-08-08T11:56:37;22.30;1.00
20650;DHT22;10484;48.736;9.332;2023-08-08T11:59:04;22.40;1.00
20650;DHT22;10484;48.736;9.332;2023-08-08T12:01:32;22.40;1.00
20650;DHT22;10484;48.736;9.332;2023-08-08T12:03:58;22.40;1.00
20650;DHT22;10484;48.736;9.332;2023-08-08T12:06:28;22.50;1.00
20650;DHT22;10484;48.736;9.332;2023-08-08T12:08:54;22.50;1.00
20650;DHT22;10484;48.736;9.332;2023-08-08T12:11:20;22.50;1.00
20650;DHT22;10484;48.736;9.332;2023-08-08T12:13:46;22.60;1.00
20650;DHT22;10484;48.736;9.332;2023-08-08T12:16:13;22.70;1.00
20650;DHT22;10484;48.736;9.332;2023-08-08T12:18:40;22.70;1.00
20650;DHT22;10484;48.736;9.332;2023-08-08T12:21:07;22.90;1.00
20650;DHT22;10484;48.736;9.332;2023-08-08T12:23:34;23.00;1.00
20650;DHT22;10484;48.736;9.332;2023-08-08T12:26:02;23.20;1.00
20650;DHT22;10484;48.736;9.332;2023-08-08T12:28:28;23.30;1.00
20650;DHT22;10484;48.736;9.332;2023-08-08T12:30:54;23.30;1.00
20650;DHT22;10484;48.736;9.332;2023-08-08T12:33:19;23.40;1.00
20650;DHT22;10484;48.736;9.332;2023-08-08T12:35:45;23.50;1.00
20650;DHT22;10484;48.736;9.332;2023-08-08T12:38:11;23.40;1.00
20650;DHT22;10484;48.736;9.332;2023-08-08T12:40:36;23.40;1.00
20650;DHT22;10484;48.736;9.332;2023-08-08T12:43:02;23.40;1.00
20650;DHT22;10484;48.736;9.332;2023-08-08T12:45:28;23.50;1.00
20650;DHT22;10484;48.736;9.332;2023-08-08T12:47:53;23.40;1.00
20650;DHT22;10484;48.736;9.332;2023-08-08T12:50:19;23.50;1.00
20650;DHT22;10484;48.736;9.332;2023-08-08T12:52:44;23.50;1.00
20650;DHT22;10484;48.736;9.332;2023-08-08T12:55:10;23.60;1.00
20650;DHT22;10484;48.736;9.332;2023-08-08T12:57:37;23.60;1.00
20650;DHT22;10484;48.736;9.332;2023-08-08T13:00:04;23.60;1.00
20650;DHT22;10484;48.736;9.332;2023-08-08T13:02:29;23.70;1.00
20650;DHT22;10484;48.736;9.332;2023-08-08T13:04:55;23.70;1.00
20650;DHT22;10484;48.736;9.332;2023-08-08T13:07:21;23.70;1.00
20650;DHT22;10484;48.736;9.332;2023-08-08T13:09:46;23.80;1.00
20650;DHT22;10484;48.736;9.332;2023-08-08T13:12:12;23.90;1.00
20650;DHT22;10484;48.736;9.332;2023-08-08T13:14:37;24.00;1.00
20650;DHT22;10484;48.736;9.332;2023-08-08T13:17:03;24.00;1.00
20650;DHT22;10484;48.736;9.332;2023-08-08T13:19:29;24.00;1.00
20650;DHT22;10484;48.736;9.332;2023-08-08T13:21:55;24.00;1.00
20650;DHT22;10484;48.736;9.332;2023-08-08T13:24:21;23.90;1.00
20650;DHT22;10484;48.736;9.332;2023-08-08T13:26:51;23.90;1.00
20650;DHT22;10484;48.736;9.332;2023-08-08T13:29:17;23.90;1.00
20650;DHT22;10484;48.736;9.332;2023-08-08T13:31:43;23.90;1.00
20650;DHT22;10484;48.736;9.332;2023-08-08T13:34:09;23.90;1.00
20650;DHT22;10484;48.736;9.332;2023-08-08T13:36:34;23.90;1.00
20650;DHT22;10484;48.736;9.332;2023-08-08T13:39:00;23.90;1.00
20650;DHT22;10484;48.736;9.332;2023-08-08T13:41:25;23.90;1.00
20650;DHT22;10484;48.736;9.332;2023-08-08T13:43:51;23.80;1.00
20650;DHT22;10484;48.736;9.332;2023-08-08T13:46:16;23.80;1.00
20650;DHT22;10484;48.736;9.332;2023-08-08T13:48:42;23.80;1.00
20650;DHT22;10484;48.736;9.332;2023-08-08T13:51:08;23.70;1.00
20650;DHT22;10484;48.736;9.332;2023-08-08T13:53:33;23.80;1.00
20650;DHT22;10484;48.736;9.332;2023-08-08T13:55:59;23.80;1.00
20650;DHT22;10484;48.736;9.332;2023-08-08T13:58:25;23.80;1.00
20650;DHT22;10484;48.736;9.332;2023-08-08T14:00:51;23.90;1.00
20650;DHT22;10484;48.736;9.332;2023-08-08T14:03:17;24.00;1.00
20650;DHT22;10484;48.736;9.332;2023-08-08T14:05:43;24.00;1.00
20650;DHT22;10484;48.736;9.332;2023-08-08T14:08:09;24.00;1.00
20650;DHT22;10484;48.736;9.332;2023-08-08T14:10:35;24.00;1.00
20650;DHT22;10484;48.736;9.332;2023-08-08T14:13:01;24.00;1.00
20650;DHT22;10484;48.736;9.332;2023-08-08T14:15:27;24.00;1.00
20650;DHT22;10484;48.736;9.332;2023-08-08T14:17:54;24.00;1.00
20650;DHT22;10484;48.736;9.332;2023-08-08T14:20:19;24.10;1.00
20650;DHT22;10484;48.736;9.332;2023-08-08T14:22:46;24.20;1.00
20650;DHT22;10484;48.736;9.332;2023-08-08T14:25:12;24.20;1.00
20650;DHT22;10484;48.736;9.332;2023-08-08T14:27:38;24.30;1.00
20650;DHT22;10484;48.736;9.332;2023-08-08T14:30:04;24.30;1.00
20650;DHT22;10484;48.736;9.332;2023-08-08T14:32:30;24.20;1.00
20650;DHT22;10484;48.736;9.332;2023-08-08T14:34:55;24.20;1.00
20650;DHT22;10484;48.736;9.332;2023-08-08T14:37:21;24.20;1.00
20650;DHT22;10484;48.736;9.332;2023-08-08T14:39:47;24.20;1.00
20650;DHT22;10484;48.736;9.332;2023-08-08T14:42:13;24.10;1.00
20650;DHT22;10484;48.736;9.332;2023-08-08T14:44:38;24.10;1.00
20650;DHT22;10484;48.736;9.332;2023-08-08T14:47:04;24.10;1.00
20650;DHT22;10484;48.736;9.332;2023-08-08T14:49:30;24.00;1.00
20650;DHT22;10484;48.736;9.332;2023-08-08T14:51:55;24.00;1.00
20650;DHT22;10484;48.736;9.332;2023-08-08T14:54:21;24.00;1.00
20650;DHT22;10484;48.736;9.332;2023-08-08T14:56:47;23.90;1.00
20650;DHT22;10484;48.736;9.332;2023-08-08T14:59:13;23.90;1.00
20650;DHT22;10484;48.736;9.332;2023-08-08T15:01:39;23.80;1.00
20650;DHT22;10484;48.736;9.332;2023-08-08T15:04:04;23.80;1.00
20650;DHT22;10484;48.736;9.332;2023-08-08T15:06:31;23.70;1.00
20650;DHT22;10484;48.736;9.332;2023-08-08T15:08:57;23.70;1.00
20650;DHT22;10484;48.736;9.332;2023-08-08T15:11:23;23.70;1.00
20650;DHT22;10484;48.736;9.332;2023-08-08T15:13:49;23.70;1.00
20650;DHT22;10484;48.736;9.332;2023-08-08T15:16:14;23.70;1.00
20650;DHT22;10484;48.736;9.332;2023-08-08T15:18:40;23.70;1.00
20650;DHT22;10484;48.736;9.332;2023-08-08T15:21:06;23.70;1.00
20650;DHT22;10484;48.736;9.332;2023-08-08T15:23:31;23.70;1.00
20650;DHT22;10484;48.736;9.332;2023-08-08T15:25:59;23.60;1.00
20650;DHT22;10484;48.736;9.332;2023-08-08T15:28:25;23.70;1.00
20650;DHT22;10484;48.736;9.332;2023-08-08T15:30:51;23.60;1.00
20650;DHT22;10484;48.736;9.332;2023-08-08T15:33:16;23.60;1.00
20650;DHT22;10484;48.736;9.332;2023-08-08T15:35:42;23.50;1.00
20650;DHT22;10484;48.736;9.332;2023-08-08T15:38:08;23.50;1.00
20650;DHT22;10484;48.736;9.332;2023-08-08T15:40:34;23.50;1.00
20650;DHT22;10484;48.736;9.332;2023-08-08T15:42:59;23.50;1.00
20650;DHT22;10484;48.736;9.332;2023-08-08T15:45:25;23.50;1.00